Time;durP1;ratioP1;P1;durP2;ratioP2;P2;SDS_P1;SDS_P2;PMS_P1;PMS_P2;Temp;Humidity;BMP_temperature;BMP_pressure;BME280_temperature;BME280_humidity;BME280_pressure;Samples;Min_cycle;Max_cycle;Signal;HPM_P1;HPM_P2
2022/03/14 00:01:06;;;;;;;;;;;9.70;98.20;;;8.29;84.81;101339.84;2567169;30;137333;-40
2022/03/14 00:03:42;;;;;;;;;;;9.70;98.40;;;8.19;85.18;101333.81;2570861;30;138292;-41
2022/03/14 00:06:10;;;;;;;;;;;9.60;98.60;;;8.20;85.76;101349.09;2569704;30;137066;-40
2022/03/14 00:08:44;;;;;;;;;;;9.60;99.00;;;8.13;86.17;101356.31;2567938;30;138913;-40
2022/03/14 00:11:16;;;;;;;;;;;9.50;99.20;;;8.11;86.64;101358.38;2567572;30;137524;-40
2022/03/14 00:13:46;;;;;;;;;;;9.50;99.30;;;8.06;87.06;101362.47;2569451;30;138197;-40
2022/03/14 00:16:23;;;;;;;;;;;9.40;99.40;;;8.01;87.39;101362.16;2569378;30;137259;-41
2022/03/14 00:18:53;;;;;;;;;;;9.40;99.70;;;8.00;87.96;101363.19;2569537;30;138375;-40
2022/03/14 00:21:23;;;;;;;;;;;9.40;99.90;;;7.95;88.14;101351.16;2566007;30;137769;-40
2022/03/14 00:23:55;;;;;;;;;;;9.30;99.90;;;8.02;88.93;101360.31;2570372;30;137189;-40
2022/03/14 00:26:22;;;;;;;;;;;9.40;99.90;;;8.01;89.12;101348.56;2569572;30;137635;-40
2022/03/14 00:28:50;;;;;;;;;;;9.40;99.90;;;7.98;89.68;101365.25;2567968;30;137839;-40
2022/03/14 00:31:20;;;;;;;;;;;9.30;99.90;;;7.95;89.66;101364.75;2567994;30;137863;-40
2022/03/14 00:33:48;;;;;;;;;;;9.30;99.90;;;7.96;90.08;101363.75;2566651;30;137379;-40
2022/03/14 00:36:15;;;;;;;;;;;9.30;99.90;;;7.91;89.87;101365.13;2569158;30;136998;-41
2022/03/14 00:38:43;;;;;;;;;;;9.30;99.90;;;7.84;90.57;101369.59;2569954;30;137763;-40
2022/03/14 00:41:12;;;;;;;;;;;9.20;99.90;;;7.80;90.95;101371.00;2569364;30;137184;-40
2022/03/14 00:43:40;;;;;;;;;;;9.20;99.90;;;7.79;90.90;101380.16;2569186;30;137384;-40
2022/03/14 00:46:07;;;;;;;;;;;9.20;99.90;;;7.82;90.87;101387.09;2569470;30;136785;-40
2022/03/14 00:48:36;;;;;;;;;;;9.20;99.90;;;7.83;90.95;101383.38;2568318;30;138255;-40
2022/03/14 00:51:04;;;;;;;;;;;9.20;99.90;;;7.83;91.13;101376.06;2566136;30;137696;-40
2022/03/14 00:53:31;;;;;;;;;;;9.20;99.90;;;7.83;90.94;101380.66;2568175;30;139330;-40
2022/03/14 00:55:59;;;;;;;;;;;9.20;99.90;;;7.85;91.04;101381.31;2570351;30;137221;-40
2022/03/14 00:58:28;;;;;;;;;;;9.20;99.90;;;7.88;91.33;101387.22;2568965;30;139180;-40
2022/03/14 01:00:56;;;;;;;;;;;9.20;99.90;;;7.89;91.31;101399.78;2566596;30;137193;-39
2022/03/14 01:03:23;;;;;;;;;;;9.20;99.90;;;7.86;91.50;101394.72;2568749;30;137965;-40
2022/03/14 01:05:51;;;;;;;;;;;9.20;99.90;;;7.83;91.96;101400.50;2564876;30;137667;-40
2022/03/14 01:08:18;;;;;;;;;;;9.20;99.90;;;7.81;92.32;101410.72;2569425;30;138506;-40
2022/03/14 01:10:48;;;;;;;;;;;9.20;99.90;;;7.73;92.69;101399.91;2570516;30;136655;-40
2022/03/14 01:13:15;;;;;;;;;;;9.20;99.90;;;7.74;92.73;101423.34;2570503;30;139040;-40
2022/03/14 01:15:43;;;;;;;;;;;9.10;99.90;;;7.70;92.82;101432.88;2570718;30;136794;-40
2022/03/14 01:18:13;;;;;;;;;;;9.00;99.90;;;7.71;93.04;101434.56;2568518;30;137670;-40
2022/03/14 01:20:42;;;;;;;;;;;9.00;99.90;;;7.72;93.31;101434.38;2566651;30;139575;-40
2022/03/14 01:23:09;;;;;;;;;;;9.10;99.90;;;7.57;93.39;101412.56;2573994;30;138088;-41
2022/03/14 01:25:37;;;;;;;;;;;9.00;99.90;;;7.61;93.74;101432.06;2568539;30;137190;-41
2022/03/14 01:28:05;;;;;;;;;;;9.00;99.90;;;7.72;94.00;101438.97;2569686;30;138219;-41
2022/03/14 01:30:33;;;;;;;;;;;9.00;99.90;;;7.76;93.65;101445.72;2569809;30;137192;-41
2022/03/14 01:33:01;;;;;;;;;;;9.10;99.90;;;7.84;94.14;101439.41;2567474;30;137391;-41
2022/03/14 01:35:28;;;;;;;;;;;9.10;99.90;;;7.91;94.10;101438.47;2568532;30;137219;-41
2022/03/14 01:37:57;;;;;;;;;;;9.20;99.90;;;7.94;93.88;101423.72;2568702;30;138192;-41
2022/03/14 01:40:25;;;;;;;;;;;9.30;99.90;;;8.09;93.92;101436.50;2568210;30;136835;-41
2022/03/14 01:42:52;;;;;;;;;;;9.40;99.90;;;8.10;93.98;101438.22;2568463;30;138287;-41
2022/03/14 01:45:21;;;;;;;;;;;9.40;99.90;;;8.13;94.11;101449.56;2568544;30;137334;-41
2022/03/14 01:47:49;;;;;;;;;;;9.40;99.90;;;8.12;94.10;101442.44;2568668;30;138234;-41
2022/03/14 01:50:18;;;;;;;;;;;9.40;99.90;;;8.10;95.23;101449.09;2569433;30;137113;-41
2022/03/14 01:52:46;;;;;;;;;;;9.40;99.90;;;8.09;95.67;101442.78;2568104;30;138386;-41
2022/03/14 01:55:14;;;;;;;;;;;9.40;99.90;;;8.09;96.40;101442.78;2568269;30;137203;-41
2022/03/14 01:57:42;;;;;;;;;;;9.40;99.90;;;8.12;96.82;101449.75;2568128;30;137359;-41
2022/03/14 02:00:12;;;;;;;;;;;9.40;99.90;;;8.16;96.85;101448.34;2565431;30;137937;-41
2022/03/14 02:02:43;;;;;;;;;;;9.50;99.90;;;8.15;97.37;101461.09;2567715;30;137026;-41
2022/03/14 02:05:12;;;;;;;;;;;9.50;99.90;;;8.17;98.27;101466.34;2566948;30;136691;-41
2022/03/14 02:07:40;;;;;;;;;;;9.50;99.90;;;8.17;98.95;101469.91;2568161;30;137502;-41
2022/03/14 02:10:08;;;;;;;;;;;9.50;99.90;;;8.18;100.00;101473.47;2568316;30;136787;-41
2022/03/14 02:12:35;;;;;;;;;;;9.50;99.90;;;8.33;100.00;101478.97;2568593;30;139260;-41
2022/03/14 02:15:03;;;;;;;;;;;9.60;99.90;;;8.31;100.00;101478.31;2566138;30;137330;-41
2022/03/14 02:17:31;;;;;;;;;;;9.60;99.90;;;8.29;100.00;101483.09;2567191;30;138288;-41
2022/03/14 02:19:59;;;;;;;;;;;9.60;99.90;;;8.30;100.00;101482.06;2568286;30;137096;-41
2022/03/14 02:22:26;;;;;;;;;;;9.60;99.90;;;8.28;100.00;101479.50;2567991;30;137812;-41
2022/03/14 02:24:54;;;;;;;;;;;9.60;99.90;;;8.27;100.00;101487.88;2568020;30;137573;-41
2022/03/14 02:27:22;;;;;;;;;;;9.60;99.90;;;8.21;100.00;101486.72;2567452;30;138262;-41
2022/03/14 02:29:49;;;;;;;;;;;9.50;99.90;;;8.19;100.00;101484.16;2568298;30;136825;-42
2022/03/14 02:32:17;;;;;;;;;;;9.50;99.90;;;8.13;100.00;101484.88;2568250;30;136847;-41
2022/03/14 02:34:45;;;;;;;;;;;9.50;99.90;;;8.13;100.00;101495.75;2569128;30;136689;-41
2022/03/14 02:37:12;;;;;;;;;;;9.50;99.90;;;8.11;100.00;101488.84;2567442;30;139189;-41
2022/03/14 02:39:39;;;;;;;;;;;9.40;99.90;;;8.08;100.00;101492.75;2567590;30;137822;-40
2022/03/14 02:42:08;;;;;;;;;;;9.40;99.90;;;8.03;100.00;101487.84;2568973;30;137456;-41
2022/03/14 02:44:42;;;;;;;;;;;9.40;99.90;;;8.02;100.00;101498.91;2567689;30;136998;-41
2022/03/14 02:47:11;;;;;;;;;;;9.30;99.90;;;7.97;100.00;101498.59;2568389;30;137900;-41
2022/03/14 02:49:38;;;;;;;;;;;9.30;99.90;;;8.03;100.00;101497.88;2570179;30;136612;-41
2022/03/14 02:52:06;;;;;;;;;;;9.30;99.90;;;8.05;100.00;101509.41;2568434;30;138330;-41
2022/03/14 02:54:34;;;;;;;;;;;9.30;99.90;;;8.08;100.00;101514.47;2568912;30;137983;-41
2022/03/14 02:57:01;;;;;;;;;;;9.40;99.90;;;8.02;100.00;101517.91;2570531;30;138083;-41
2022/03/14 02:59:29;;;;;;;;;;;9.30;99.90;;;7.99;100.00;101512.84;2567583;30;137055;-41
2022/03/14 03:01:57;;;;;;;;;;;9.30;99.90;;;7.96;100.00;101514.03;2567660;30;139562;-41
2022/03/14 03:04:24;;;;;;;;;;;9.30;99.90;;;7.92;100.00;101520.84;2569309;30;137239;-41
2022/03/14 03:06:54;;;;;;;;;;;9.30;99.90;;;7.91;100.00;101530.03;2569157;30;138780;-41
2022/03/14 03:09:22;;;;;;;;;;;9.20;99.90;;;7.90;100.00;101531.88;2567360;30;137831;-41
2022/03/14 03:11:49;;;;;;;;;;;9.20;99.90;;;7.88;100.00;101536.66;2567787;30;138281;-41
2022/03/14 03:14:16;;;;;;;;;;;9.20;99.90;;;7.92;100.00;101543.44;2568301;30;136987;-41
2022/03/14 03:16:44;;;;;;;;;;;9.20;99.90;;;7.91;100.00;101541.72;2568225;30;138290;-41
2022/03/14 03:19:12;;;;;;;;;;;9.30;99.90;;;7.94;100.00;101553.28;2566305;30;137463;-41
2022/03/14 03:21:39;;;;;;;;;;;9.30;99.90;;;7.95;100.00;101553.09;2568510;30;137133;-41
2022/03/14 03:24:08;;;;;;;;;;;9.30;99.90;;;7.94;100.00;101553.28;2568486;30;137097;-41
2022/03/14 03:26:38;;;;;;;;;;;9.20;99.90;;;7.86;100.00;101568.59;2567932;30;138960;-41
2022/03/14 03:29:09;;;;;;;;;;;9.20;99.90;;;7.85;100.00;101566.06;2568163;30;137258;-41
2022/03/14 03:31:38;;;;;;;;;;;9.20;99.90;;;7.87;100.00;101569.47;2567667;30;139096;-41
2022/03/14 03:34:06;;;;;;;;;;;9.20;99.90;;;7.88;100.00;101582.00;2568293;30;137313;-41
2022/03/14 03:36:34;;;;;;;;;;;9.20;99.90;;;7.89;100.00;101584.53;2568078;30;138232;-41
2022/03/14 03:39:01;;;;;;;;;;;9.20;99.90;;;7.85;100.00;101577.78;2569214;30;136815;-41
2022/03/14 03:41:29;;;;;;;;;;;9.20;99.90;;;7.89;100.00;101589.16;2568542;30;138500;-41
2022/03/14 03:43:57;;;;;;;;;;;9.20;99.90;;;7.87;100.00;101589.31;2565369;30;136850;-41
2022/03/14 03:46:25;;;;;;;;;;;9.20;99.90;;;7.85;100.00;101588.63;2568673;30;136940;-41
2022/03/14 03:48:52;;;;;;;;;;;9.20;99.90;;;7.90;100.00;101602.53;2568045;30;137165;-41
2022/03/14 03:51:20;;;;;;;;;;;9.20;99.90;;;7.85;100.00;101604.09;2566646;30;139020;-41
2022/03/14 03:53:47;;;;;;;;;;;9.20;99.90;;;7.87;100.00;101602.88;2568411;30;136819;-41
2022/03/14 03:56:14;;;;;;;;;;;9.20;99.90;;;7.88;100.00;101601.03;2569003;30;138011;-41
2022/03/14 03:58:42;;;;;;;;;;;9.20;99.90;;;7.83;100.00;101611.59;2567445;30;137083;-41
2022/03/14 04:01:10;;;;;;;;;;;9.20;99.90;;;7.82;100.00;101615.28;2567635;30;138215;-41
2022/03/14 04:03:37;;;;;;;;;;;9.20;99.90;;;7.76;100.00;101620.41;2568042;30;136823;-42
2022/03/14 04:06:05;;;;;;;;;;;9.10;99.90;;;7.81;100.00;101625.34;2568455;30;138220;-41
2022/03/14 04:08:34;;;;;;;;;;;9.10;99.90;;;7.85;100.00;101623.13;2568677;30;137165;-41
2022/03/14 04:11:06;;;;;;;;;;;9.20;99.90;;;7.81;100.00;101635.34;2568670;30;139041;-41
2022/03/14 04:13:34;;;;;;;;;;;9.10;99.90;;;7.75;100.00;101631.47;2566452;30;137408;-41
2022/03/14 04:16:02;;;;;;;;;;;9.10;99.90;;;7.78;100.00;101639.25;2568841;30;138252;-41
2022/03/14 04:18:29;;;;;;;;;;;9.10;99.90;;;7.78;100.00;101634.66;2568717;30;137032;-41
2022/03/14 04:20:57;;;;;;;;;;;9.10;99.90;;;7.78;100.00;101641.97;2565362;30;139871;-40
2022/03/14 04:23:24;;;;;;;;;;;9.10;99.90;;;7.77;100.00;101640.28;2567703;30;137251;-41
2022/03/14 04:25:55;;;;;;;;;;;9.10;99.90;;;7.74;100.00;101638.75;2568652;30;139070;-41
2022/03/14 04:28:22;;;;;;;;;;;9.10;99.90;;;7.75;100.00;101645.06;2568370;30;137602;-41
2022/03/14 04:30:50;;;;;;;;;;;9.10;99.90;;;7.74;100.00;101643.34;2567904;30;138430;-41
2022/03/14 04:33:17;;;;;;;;;;;9.10;99.90;;;7.69;100.00;101651.16;2567577;30;137112;-41
2022/03/14 04:35:44;;;;;;;;;;;9.00;99.90;;;7.68;100.00;101653.03;2567470;30;139041;-41
2022/03/14 04:38:13;;;;;;;;;;;9.00;99.90;;;7.64;100.00;101657.13;2567511;30;138017;-41
2022/03/14 04:40:40;;;;;;;;;;;9.00;99.90;;;7.65;100.00;101657.97;2567724;30;139133;-41
2022/03/14 04:43:09;;;;;;;;;;;9.00;99.90;;;7.66;100.00;101671.38;2567101;30;138497;-41
2022/03/14 04:45:38;;;;;;;;;;;9.00;99.90;;;7.68;100.00;101673.91;2569041;30;137048;-41
2022/03/14 04:48:10;;;;;;;;;;;9.00;99.90;;;7.70;100.00;101669.19;2569167;30;136740;-41
2022/03/14 04:50:39;;;;;;;;;;;9.00;99.90;;;7.66;100.00;101675.94;2566573;30;138205;-41
2022/03/14 04:53:06;;;;;;;;;;;9.00;99.90;;;7.62;100.00;101679.00;2568890;30;137723;-41
2022/03/14 04:55:35;;;;;;;;;;;9.00;99.90;;;7.59;100.00;101682.06;2567617;30;138374;-40
2022/03/14 04:58:03;;;;;;;;;;;8.90;99.90;;;7.56;100.00;101681.56;2567692;30;138201;-41
2022/03/14 05:00:31;;;;;;;;;;;8.90;99.90;;;7.57;100.00;101689.53;2569683;30;137922;-42
2022/03/14 05:03:06;;;;;;;;;;;8.90;99.90;;;7.55;100.00;101694.31;2568639;30;136725;-41
2022/03/14 05:05:37;;;;;;;;;;;8.90;99.90;;;7.47;100.00;101692.44;2569857;30;137815;-40
2022/03/14 05:08:05;;;;;;;;;;;8.90;99.90;;;7.48;100.00;101696.03;2569346;30;137032;-41
2022/03/14 05:10:34;;;;;;;;;;;8.80;99.90;;;7.49;100.00;101703.13;2567968;30;138928;-41
2022/03/14 05:13:02;;;;;;;;;;;8.80;99.90;;;7.47;100.00;101705.19;2566774;30;137391;-41
2022/03/14 05:15:30;;;;;;;;;;;8.80;99.90;;;7.43;100.00;101695.69;2570112;30;137122;-41
2022/03/14 05:18:01;;;;;;;;;;;8.80;99.90;;;7.42;100.00;101707.53;2566815;30;137872;-41
2022/03/14 05:20:29;;;;;;;;;;;8.80;99.90;;;7.47;100.00;101721.47;2566587;30;137425;-41
2022/03/14 05:22:57;;;;;;;;;;;8.80;99.90;;;7.45;100.00;101716.19;2567514;30;137009;-41
2022/03/14 05:25:26;;;;;;;;;;;8.80;99.90;;;7.42;100.00;101721.97;2567507;30;138386;-41
2022/03/14 05:27:53;;;;;;;;;;;8.80;99.90;;;7.47;100.00;101729.63;2570153;30;137073;-41
2022/03/14 05:30:22;;;;;;;;;;;8.80;99.90;;;7.45;100.00;101737.09;2566289;30;138259;-41
2022/03/14 05:32:50;;;;;;;;;;;8.80;99.90;;;7.45;100.00;101731.66;2569008;30;137278;-41
2022/03/14 05:35:18;;;;;;;;;;;8.80;99.90;;;7.44;100.00;101740.81;2568225;30;137485;-41
2022/03/14 05:37:47;;;;;;;;;;;8.80;99.90;;;7.39;100.00;101745.88;2568294;30;137086;-41
2022/03/14 05:40:17;;;;;;;;;;;8.80;99.90;;;7.38;100.00;101749.63;2566085;30;137711;-41
2022/03/14 05:42:50;;;;;;;;;;;8.70;99.90;;;7.37;100.00;101747.91;2568570;30;137888;-41
2022/03/14 05:45:19;;;;;;;;;;;8.70;99.90;;;7.36;100.00;101762.53;2568275;30;138942;-41
2022/03/14 05:47:47;;;;;;;;;;;8.70;99.90;;;7.37;100.00;101766.94;2568275;30;137034;-41
2022/03/14 05:50:15;;;;;;;;;;;8.70;99.90;;;7.39;100.00;101773.91;2567842;30;138332;-41
2022/03/14 05:52:43;;;;;;;;;;;8.70;99.90;;;7.39;100.00;101771.19;2567686;30;137466;-41
2022/03/14 05:55:11;;;;;;;;;;;8.70;99.90;;;7.37;100.00;101775.06;2568063;30;138196;-41
2022/03/14 05:57:39;;;;;;;;;;;8.70;99.90;;;7.34;100.00;101777.09;2569114;30;136805;-41
2022/03/14 06:00:08;;;;;;;;;;;8.70;99.90;;;7.38;100.00;101784.91;2567657;30;137957;-41
2022/03/14 06:02:46;;;;;;;;;;;8.70;99.90;;;7.39;100.00;101781.19;2567762;30;136808;-42
2022/03/14 06:05:14;;;;;;;;;;;8.70;99.90;;;7.39;100.00;101783.91;2568913;30;138358;-41
2022/03/14 06:07:41;;;;;;;;;;;8.70;99.90;;;7.40;100.00;101791.03;2568155;30;137863;-41
2022/03/14 06:10:10;;;;;;;;;;;8.70;99.90;;;7.34;100.00;101796.13;2567050;30;138176;-41
2022/03/14 06:12:37;;;;;;;;;;;8.70;99.90;;;7.38;100.00;101798.50;2568731;30;137171;-41
2022/03/14 06:15:09;;;;;;;;;;;8.70;99.90;;;7.36;100.00;101795.09;2567160;30;138346;-41
2022/03/14 06:17:36;;;;;;;;;;;8.70;99.90;;;7.40;100.00;101802.75;2568633;30;137218;-41
2022/03/14 06:20:04;;;;;;;;;;;8.70;99.90;;;7.34;100.00;101798.00;2569642;30;138226;-41
2022/03/14 06:22:32;;;;;;;;;;;8.70;99.90;;;7.36;100.00;101798.69;2567860;30;137997;-40
2022/03/14 06:25:01;;;;;;;;;;;8.70;99.90;;;7.32;100.00;101805.47;2567895;30;138238;-41
2022/03/14 06:27:28;;;;;;;;;;;8.70;99.90;;;7.39;100.00;101801.06;2568408;30;137804;-41
2022/03/14 06:29:56;;;;;;;;;;;8.70;99.90;;;7.27;100.00;101792.38;2569146;30;138169;-41
2022/03/14 06:32:23;;;;;;;;;;;8.70;99.90;;;7.30;100.00;101808.31;2568166;30;137034;-41
2022/03/14 06:34:51;;;;;;;;;;;8.70;99.90;;;7.31;100.00;101812.75;2567798;30;139250;-40
2022/03/14 06:37:19;;;;;;;;;;;8.70;99.90;;;7.28;100.00;101823.06;2567893;30;137817;-41
2022/03/14 06:39:46;;;;;;;;;;;8.60;99.90;;;7.28;100.00;101821.22;2566940;30;138445;-41
2022/03/14 06:42:14;;;;;;;;;;;8.60;99.90;;;7.28;100.00;101821.22;2568724;30;137165;-41
2022/03/14 06:44:42;;;;;;;;;;;8.60;99.90;;;7.37;100.00;101826.66;2568125;30;138346;-41
2022/03/14 06:47:12;;;;;;;;;;;8.70;99.90;;;7.31;100.00;101818.16;2569626;30;137053;-41
2022/03/14 06:49:42;;;;;;;;;;;8.70;99.90;;;7.37;100.00;101837.50;2568318;30;138197;-41
2022/03/14 06:52:10;;;;;;;;;;;8.70;99.90;;;7.32;100.00;101824.47;2567629;30;136799;-41
2022/03/14 06:54:38;;;;;;;;;;;8.70;99.90;;;7.38;100.00;101836.50;2568824;30;138252;-41
2022/03/14 06:57:07;;;;;;;;;;;8.70;99.90;;;7.40;100.00;101848.03;2570392;30;136952;-43
2022/03/14 06:59:35;;;;;;;;;;;8.70;99.90;;;7.39;100.00;101849.06;2568885;30;137171;-41
2022/03/14 07:02:03;;;;;;;;;;;8.70;99.90;;;7.40;100.00;101857.06;2566583;30;137288;-41
2022/03/14 07:04:31;;;;;;;;;;;8.70;99.90;;;7.43;100.00;101861.31;2568222;30;137073;-41
2022/03/14 07:07:03;;;;;;;;;;;8.70;99.90;;;7.46;100.00;101860.97;2569108;30;136779;-41
2022/03/14 07:09:31;;;;;;;;;;;8.80;99.90;;;7.53;100.00;101862.00;2568723;30;137159;-41
2022/03/14 07:11:59;;;;;;;;;;;8.80;99.90;;;7.60;100.00;101868.44;2568609;30;136726;-41
2022/03/14 07:14:26;;;;;;;;;;;8.90;99.90;;;7.61;100.00;101870.16;2569003;30;138299;-41
2022/03/14 07:16:54;;;;;;;;;;;8.90;99.90;;;7.56;100.00;101850.81;2568888;30;136693;-41
2022/03/14 07:19:22;;;;;;;;;;;9.00;99.90;;;7.75;100.00;101881.41;2565188;30;139063;-41
2022/03/14 07:21:50;;;;;;;;;;;9.00;99.90;;;7.79;100.00;101885.47;2567554;30;137977;-41
2022/03/14 07:24:17;;;;;;;;;;;9.00;99.90;;;7.80;100.00;101880.88;2617432;30;138268;-41
2022/03/14 07:26:44;;;;;;;;;;;9.10;99.90;;;7.83;100.00;101886.81;2568434;30;136675;-40
2022/03/14 07:29:13;;;;;;;;;;;9.10;99.90;;;7.88;100.00;101892.59;2570180;30;137323;-40
2022/03/14 07:31:42;;;;;;;;;;;9.20;99.90;;;7.94;100.00;101895.66;2568705;30;137831;-40
2022/03/14 07:34:09;;;;;;;;;;;9.20;99.90;;;7.95;100.00;101900.06;2566933;30;137072;-40
2022/03/14 07:36:37;;;;;;;;;;;9.20;99.90;;;8.03;100.00;101905.53;2571975;30;136887;-40
2022/03/14 07:39:05;;;;;;;;;;;9.30;99.90;;;8.10;100.00;101911.16;2568371;30;138142;-39
2022/03/14 07:41:33;;;;;;;;;;;9.30;99.90;;;8.09;100.00;101906.69;2568091;30;137352;-40
2022/03/14 07:44:00;;;;;;;;;;;9.30;99.90;;;8.14;100.00;101918.78;2570766;30;137678;-40
2022/03/14 07:46:28;;;;;;;;;;;9.40;99.90;;;8.16;100.00;101922.16;2569392;30;137039;-40
2022/03/14 07:48:57;;;;;;;;;;;9.40;99.90;;;8.21;100.00;101932.53;2572330;30;138431;-40
2022/03/14 07:51:25;;;;;;;;;;;9.50;99.90;;;8.25;100.00;101941.22;2568972;30;138108;-40
2022/03/14 07:53:52;;;;;;;;;;;9.50;99.90;;;8.28;100.00;101947.16;2569540;30;139260;-40
2022/03/14 07:56:23;;;;;;;;;;;9.50;99.90;;;8.25;100.00;101944.78;2569934;30;137931;-40
2022/03/14 07:58:50;;;;;;;;;;;9.50;99.90;;;8.31;100.00;101952.25;2567777;30;138656;-40
2022/03/14 08:01:18;;;;;;;;;;;9.60;99.90;;;8.30;100.00;101955.16;2569390;30;137168;-40
2022/03/14 08:03:45;;;;;;;;;;;9.60;99.90;;;8.37;100.00;101956.16;2570238;30;138184;-40
2022/03/14 08:06:17;;;;;;;;;;;9.60;99.90;;;8.39;100.00;101956.84;2568895;30;137095;-40
2022/03/14 08:08:44;;;;;;;;;;;9.60;99.90;;;8.44;100.00;101961.78;2569421;30;138517;-40
2022/03/14 08:11:13;;;;;;;;;;;9.70;99.90;;;8.46;100.00;101976.88;2569981;30;137006;-40
2022/03/14 08:13:40;;;;;;;;;;;9.70;99.90;;;8.46;100.00;101973.34;2569321;30;138313;-40
2022/03/14 08:16:12;;;;;;;;;;;9.70;99.90;;;8.49;100.00;101971.16;2568895;30;137143;-39
2022/03/14 08:18:40;;;;;;;;;;;9.70;99.90;;;8.48;100.00;101977.56;2570203;30;138417;-40
2022/03/14 08:21:07;;;;;;;;;;;9.70;99.90;;;8.53;100.00;101979.81;2569634;30;137386;-40
2022/03/14 08:23:36;;;;;;;;;;;9.80;99.90;;;8.57;100.00;101977.63;2568901;30;138290;-40
2022/03/14 08:26:03;;;;;;;;;;;9.80;99.90;;;8.59;100.00;101979.13;2569413;30;137199;-40
2022/03/14 08:28:31;;;;;;;;;;;9.80;99.90;;;8.61;100.00;101978.97;2569796;30;138222;-40
2022/03/14 08:31:00;;;;;;;;;;;9.80;99.90;;;8.70;100.00;101982.53;2570373;30;137230;-41
2022/03/14 08:33:29;;;;;;;;;;;9.90;99.90;;;8.81;100.00;101994.94;2569971;30;138720;-40
2022/03/14 08:36:00;;;;;;;;;;;10.00;99.90;;;8.89;100.00;101998.50;2569588;30;137049;-41
2022/03/14 08:38:28;;;;;;;;;;;10.00;99.90;;;8.90;100.00;102002.06;2568123;30;138461;-40
2022/03/14 08:40:55;;;;;;;;;;;10.10;99.90;;;8.99;100.00;102001.00;2569138;30;137028;-41
2022/03/14 08:43:23;;;;;;;;;;;10.20;99.90;;;9.11;100.00;102000.66;2569265;30;138649;-39
2022/03/14 08:45:50;;;;;;;;;;;10.30;99.90;;;9.23;100.00;101999.25;2569005;30;137050;-42
2022/03/14 08:48:22;;;;;;;;;;;10.40;99.90;;;9.34;100.00;102007.06;2568100;30;138439;-40
2022/03/14 08:50:49;;;;;;;;;;;10.40;99.90;;;9.35;100.00;102006.03;2568802;30;136981;-40
2022/03/14 08:53:17;;;;;;;;;;;10.50;99.90;;;9.46;100.00;102014.84;2566918;30;138560;-40
2022/03/14 08:55:44;;;;;;;;;;;10.60;99.90;;;9.50;100.00;102018.91;2569032;30;136821;-40
2022/03/14 08:58:12;;;;;;;;;;;10.70;99.90;;;9.56;100.00;102025.53;2568635;30;138426;-40
2022/03/14 09:00:39;;;;;;;;;;;10.70;99.90;;;9.57;100.00;102011.75;2567954;30;137059;-40
2022/03/14 09:03:07;;;;;;;;;;;10.80;99.90;;;9.66;100.00;102023.44;2570753;30;137217;-40
2022/03/14 09:05:34;;;;;;;;;;;10.80;99.90;;;9.74;100.00;102028.00;2566979;30;137384;-40
2022/03/14 09:08:03;;;;;;;;;;;10.90;99.90;;;9.83;100.00;102026.97;2569628;30;138248;-41
2022/03/14 09:10:36;;;;;;;;;;;10.90;99.90;;;9.96;100.00;102033.69;2568449;30;136982;-40
2022/03/14 09:13:04;;;;;;;;;;;11.00;99.90;;;9.98;100.00;102037.97;2567759;30;138274;-40
2022/03/14 09:15:33;;;;;;;;;;;11.10;99.90;;;10.00;100.00;102037.75;2567442;30;138362;-40
2022/03/14 09:18:03;;;;;;;;;;;11.10;99.90;;;9.99;97.29;102052.44;2570602;30;137315;-41
2022/03/14 09:20:30;;;;;;;;;;;11.20;99.90;;;9.99;97.33;102055.16;2568798;30;137506;-40
2022/03/14 09:22:58;;;;;;;;;;;11.20;99.90;;;9.96;98.58;102059.09;2569025;30;138162;-40
2022/03/14 09:25:26;;;;;;;;;;;11.20;99.90;;;9.97;98.05;102057.22;2569486;30;136885;-40
2022/03/14 09:27:53;;;;;;;;;;;11.20;99.90;;;9.91;97.66;102065.09;2566961;30;138307;-40
2022/03/14 09:30:22;;;;;;;;;;;11.10;99.90;;;9.96;99.17;102071.88;2570556;30;137209;-40
2022/03/14 09:32:50;;;;;;;;;;;11.20;99.90;;;9.96;98.30;102064.56;2568319;30;139243;-42
2022/03/14 09:35:19;;;;;;;;;;;11.20;99.90;;;9.98;96.38;102069.81;2570014;30;138188;-40
2022/03/14 09:37:49;;;;;;;;;;;11.20;99.90;;;10.01;95.16;102078.50;2567472;30;139153;-40
2022/03/14 09:40:21;;;;;;;;;;;11.20;99.90;;;9.92;94.16;102085.84;2569978;30;137315;-40
2022/03/14 09:42:53;;;;;;;;;;;11.20;99.90;;;9.87;93.90;102091.00;2569210;30;138303;-40
2022/03/14 09:45:21;;;;;;;;;;;11.10;99.90;;;9.86;96.05;102092.03;2570611;30;137281;-40
2022/03/14 09:47:51;;;;;;;;;;;11.10;99.90;;;9.88;95.24;102094.56;2569897;30;136884;-40
2022/03/14 09:50:35;;;;;;;;;;;11.10;99.90;;;9.90;94.88;102104.28;2570745;30;137851;-40
2022/03/14 09:53:10;;;;;;;;;;;11.10;99.90;;;9.86;93.77;102102.06;2567296;30;138588;-40
2022/03/14 09:55:41;;;;;;;;;;;11.10;99.90;;;9.86;93.06;102108.38;2568092;30;137797;-41
2022/03/14 09:58:27;;;;;;;;;;;11.10;99.90;;;9.82;93.02;102103.44;2567587;30;138555;-40
2022/03/14 10:00:54;;;;;;;;;;;11.10;99.90;;;9.88;92.21;102111.78;2570932;30;137149;-40
2022/03/14 10:03:22;;;;;;;;;;;11.10;99.90;;;9.89;92.43;102113.47;2570186;30;138955;-40
2022/03/14 10:05:50;;;;;;;;;;;11.10;99.90;;;9.95;94.46;102119.25;2567794;30;136990;-40
2022/03/14 10:08:18;;;;;;;;;;;11.10;99.90;;;10.04;93.76;102121.75;2570406;30;137239;-41
2022/03/14 10:10:45;;;;;;;;;;;11.20;99.90;;;10.11;90.38;102121.91;2569734;30;137108;-40
2022/03/14 10:13:34;;;;;;;;;;;11.30;99.90;;;10.24;90.02;102128.66;2569192;30;138249;-39
2022/03/14 10:16:03;;;;;;;;;;;11.40;99.90;;;10.49;91.41;102134.88;2569533;30;136929;-40
2022/03/14 10:18:37;;;;;;;;;;;11.60;99.90;;;10.59;87.39;102135.47;2570118;30;138190;-40
2022/03/14 10:21:06;;;;;;;;;;;11.70;99.90;;;10.65;86.79;102147.56;2572252;30;139305;-40
2022/03/14 10:23:41;;;;;;;;;;;11.70;99.90;;;10.62;86.99;102143.31;2569816;30;138021;-40
2022/03/14 10:26:12;;;;;;;;;;;11.80;99.90;;;10.52;86.08;102144.56;2566734;30;136781;-40
2022/03/14 10:28:40;;;;;;;;;;;11.70;99.90;;;10.52;85.97;102148.16;2568969;30;138261;-40
2022/03/14 10:31:35;;;;;;;;;;;11.70;99.90;;;10.61;87.65;102157.97;2568101;30;136991;-40
2022/03/14 10:34:11;;;;;;;;;;;11.70;99.90;;;10.65;85.55;102153.03;2570514;30;139188;-40
2022/03/14 10:36:55;;;;;;;;;;;11.80;99.90;;;10.61;84.02;102148.97;2568010;30;137345;-40
2022/03/14 10:39:27;;;;;;;;;;;11.80;99.90;;;10.69;85.74;102156.22;2568825;30;138316;-41
2022/03/14 10:42:12;;;;;;;;;;;11.90;99.90;;;10.68;84.00;102149.91;2566737;30;137218;-40
2022/03/14 10:44:45;;;;;;;;;;;11.80;99.90;;;11.00;82.97;102166.22;2568385;30;137358;-40
2022/03/14 10:47:13;;;;;;;;;;;12.00;99.90;;;11.37;84.34;102149.00;2569514;30;138654;-40
2022/03/14 10:49:45;;;;;;;;;;;12.30;99.90;;;11.84;82.02;102165.28;2569761;30;138183;-40
2022/03/14 10:52:17;;;;;;;;;;;12.70;99.90;;;12.13;80.73;102160.84;2569921;30;137383;-41
2022/03/14 10:54:44;;;;;;;;;;;12.90;99.90;;;12.47;78.28;102164.88;2569145;30;138247;-40
2022/03/14 10:57:16;;;;;;;;;;;13.30;99.90;;;12.71;74.81;102164.72;2570451;30;137302;-40
2022/03/14 10:59:50;;;;;;;;;;;13.60;99.90;;;12.94;74.61;102167.25;2570458;30;139249;-40
2022/03/14 11:02:26;;;;;;;;;;;13.80;99.90;;;13.09;75.28;102169.91;2569964;30;137783;-40
2022/03/14 11:04:58;;;;;;;;;;;14.00;99.90;;;13.13;74.82;102164.91;2571021;30;137786;-40
2022/03/14 11:07:28;;;;;;;;;;;14.10;99.90;;;13.15;73.95;102165.56;2570075;30;136854;-40
2022/03/14 11:09:58;;;;;;;;;;;14.20;99.90;;;13.18;74.21;102163.28;2570254;30;137364;-40
2022/03/14 11:12:28;;;;;;;;;;;14.30;99.90;;;13.19;73.14;102162.22;2567322;30;137102;-41
2022/03/14 11:14:57;;;;;;;;;;;14.30;99.90;;;13.19;73.64;102164.09;2568019;30;138250;-40
2022/03/14 11:17:27;;;;;;;;;;;14.30;99.90;;;13.25;70.25;102166.06;2569845;30;138016;-40